createdAt,value
2023-04-24T00:02:21.010Z,13.10
2023-04-24T00:04:48.313Z,16.00
2023-04-24T00:07:18.027Z,20.60
2023-04-24T00:09:45.325Z,19.00
2023-04-24T00:12:12.549Z,18.80
2023-04-24T00:14:39.904Z,33.50
2023-04-24T00:17:07.276Z,35.20
2023-04-24T00:19:36.382Z,82.20
2023-04-24T00:22:03.916Z,59.90
2023-04-24T00:24:31.088Z,50.70
2023-04-24T00:26:58.433Z,37.30
2023-04-24T00:29:25.642Z,27.70
2023-04-24T00:31:52.950Z,27.50
2023-04-24T00:34:20.064Z,28.60
2023-04-24T00:36:47.428Z,24.00
2023-04-24T00:39:14.648Z,25.10
2023-04-24T00:41:42.480Z,24.10
2023-04-24T00:44:09.634Z,21.90
2023-04-24T00:46:37.232Z,21.20
2023-04-24T00:49:04.587Z,21.60
2023-04-24T00:51:33.911Z,17.20
2023-04-24T00:54:02.406Z,21.90
2023-04-24T00:56:29.611Z,21.00
2023-04-24T00:58:56.937Z,19.90
2023-04-24T01:01:26.932Z,18.40
2023-04-24T01:03:54.372Z,20.00
2023-04-24T01:06:21.735Z,21.70
2023-04-24T01:08:49.272Z,14.50
2023-04-24T01:11:16.363Z,16.10
2023-04-24T01:13:43.525Z,14.10
2023-04-24T01:16:12.308Z,14.50
2023-04-24T01:18:39.467Z,19.20
2023-04-24T01:21:07.172Z,19.10
2023-04-24T01:23:34.269Z,21.50
2023-04-24T01:26:02.131Z,22.40
2023-04-24T01:28:29.266Z,21.20
2023-04-24T01:30:57.625Z,19.20
2023-04-24T01:33:24.717Z,18.50
2023-04-24T01:35:51.912Z,17.10
2023-04-24T01:38:19.139Z,16.20
2023-04-24T01:40:46.400Z,15.80
2023-04-24T01:43:14.082Z,12.20
2023-04-24T01:45:41.277Z,11.60
2023-04-24T01:48:08.349Z,13.30
2023-04-24T01:50:38.960Z,12.00
2023-04-24T01:53:06.180Z,13.50
2023-04-24T01:55:33.650Z,10.10
2023-04-24T01:58:00.813Z,8.00
2023-04-24T02:00:27.980Z,7.50
2023-04-24T02:02:55.315Z,12.10
2023-04-24T02:05:22.610Z,8.00
2023-04-24T02:07:49.875Z,10.40
2023-04-24T02:10:17.043Z,15.90
2023-04-24T02:12:44.873Z,13.10
2023-04-24T02:15:12.295Z,15.30
2023-04-24T02:17:39.774Z,15.70
2023-04-24T02:20:10.158Z,9.10
2023-04-24T02:22:39.281Z,7.00
2023-04-24T02:25:08.434Z,7.30
2023-04-24T02:27:35.654Z,6.30
2023-04-24T02:30:06.616Z,7.50
2023-04-24T02:32:33.907Z,9.70
2023-04-24T02:35:01.087Z,7.70
2023-04-24T02:37:28.241Z,7.90
2023-04-24T02:39:55.425Z,8.50
2023-04-24T02:42:23.957Z,7.70
2023-04-24T02:44:52.685Z,8.80
2023-04-24T02:47:19.899Z,8.00
2023-04-24T02:49:47.108Z,5.10
2023-04-24T02:52:15.978Z,7.30
2023-04-24T02:54:43.173Z,5.40
2023-04-24T02:57:10.246Z,4.70
2023-04-24T02:59:38.354Z,4.90
2023-04-24T03:14:07.583Z,8.40
2023-04-24T03:16:34.834Z,6.50
2023-04-24T03:19:02.346Z,8.40
2023-04-24T03:21:30.638Z,11.60
2023-04-24T03:24:00.074Z,15.40
2023-04-24T03:26:27.502Z,15.40
2023-04-24T03:29:07.171Z,17.20
2023-04-24T03:31:34.675Z,19.00
2023-04-24T03:34:01.928Z,20.20
2023-04-24T03:36:29.589Z,21.40
2023-04-24T03:38:56.845Z,25.40
2023-04-24T03:41:33.959Z,21.20
2023-04-24T03:44:23.705Z,19.50
2023-04-24T03:46:51.288Z,19.30
2023-04-24T03:49:19.755Z,16.80
2023-04-24T03:51:47.341Z,14.60
2023-04-24T03:54:26.882Z,14.40
2023-04-24T03:56:55.180Z,16.50
2023-04-24T03:59:23.429Z,15.10
2023-04-24T04:02:01.019Z,16.70
2023-04-24T04:04:29.198Z,16.80
2023-04-24T04:09:30.713Z,14.80
2023-04-24T04:11:57.867Z,12.80
2023-04-24T04:14:25.481Z,12.30
2023-04-24T04:16:54.679Z,15.70
2023-04-24T04:19:22.835Z,12.40
2023-04-24T04:21:54.635Z,12.50
2023-04-24T04:24:45.711Z,12.60
2023-04-24T04:27:15.177Z,13.10
2023-04-24T04:29:51.244Z,11.40
2023-04-24T04:32:19.167Z,12.10
2023-04-24T04:34:50.818Z,15.80
2023-04-24T04:37:18.526Z,15.30
2023-04-24T04:39:51.731Z,15.30
2023-04-24T04:42:22.400Z,16.60
2023-04-24T04:44:52.087Z,17.90
2023-04-24T04:47:24.587Z,23.30
2023-04-24T04:49:55.152Z,22.30
2023-04-24T04:52:26.525Z,21.30
2023-04-24T04:54:59.959Z,25.40
2023-04-24T04:57:34.219Z,23.30
2023-04-24T05:05:57.404Z,18.40
2023-04-24T05:08:43.812Z,19.90
2023-04-24T05:11:16.360Z,16.60
2023-04-24T05:13:43.626Z,17.60
2023-04-24T05:16:16.973Z,18.40
2023-04-24T05:18:47.631Z,20.20
2023-04-24T05:21:17.120Z,20.70
2023-04-24T05:23:47.075Z,21.40
2023-04-24T05:26:16.831Z,20.40
2023-04-24T05:28:45.293Z,23.00
2023-04-24T05:31:13.759Z,21.20
2023-04-24T05:33:41.116Z,19.50
2023-04-24T05:36:08.709Z,19.10
2023-04-24T05:38:37.147Z,22.30
2023-04-24T05:41:04.342Z,17.30
2023-04-24T05:43:32.904Z,16.70
2023-04-24T05:46:04.633Z,14.40
2023-04-24T05:48:32.852Z,12.80
2023-04-24T05:51:02.341Z,13.60
2023-04-24T05:53:30.916Z,9.60
2023-04-24T05:55:59.178Z,10.70
2023-04-24T05:58:27.176Z,9.80
2023-04-24T06:00:54.944Z,7.60
2023-04-24T06:03:23.132Z,9.40
2023-04-24T06:05:52.377Z,8.90
2023-04-24T06:08:20.112Z,8.10
2023-04-24T06:10:47.881Z,10.70
2023-04-24T06:13:17.297Z,9.30
2023-04-24T06:15:54.433Z,8.70
2023-04-24T06:18:30.368Z,10.90
2023-04-24T06:20:57.680Z,7.10
2023-04-24T06:23:24.918Z,6.00
2023-04-24T06:25:52.436Z,6.70
2023-04-24T06:28:19.790Z,5.70
2023-04-24T06:30:46.897Z,5.40
2023-04-24T06:35:49.373Z,6.10
2023-04-24T06:38:17.965Z,5.00
2023-04-24T06:40:46.140Z,7.00
2023-04-24T06:43:13.877Z,4.60
2023-04-24T06:45:41.271Z,3.60
2023-04-24T06:48:08.609Z,3.70
2023-04-24T06:50:36.527Z,3.30
2023-04-24T06:53:03.658Z,3.00
2023-04-24T06:55:32.366Z,3.40
2023-04-24T06:57:59.919Z,3.50
2023-04-24T07:00:27.073Z,3.40
2023-04-24T07:02:54.553Z,3.00
2023-04-24T07:05:21.792Z,2.90
2023-04-24T07:07:50.233Z,2.40
2023-04-24T07:10:17.431Z,2.00
2023-04-24T07:12:44.909Z,2.20
2023-04-24T07:15:12.066Z,2.50
2023-04-24T07:17:39.837Z,2.80
2023-04-24T07:20:10.591Z,2.10
2023-04-24T07:22:39.304Z,2.80
2023-04-24T07:25:06.731Z,2.20
2023-04-24T07:27:34.315Z,2.50
2023-04-24T07:30:05.720Z,2.70
2023-04-24T07:32:33.128Z,2.70
2023-04-24T07:35:00.260Z,2.00
2023-04-24T07:37:28.967Z,1.60
2023-04-24T07:39:56.528Z,2.70
2023-04-24T07:42:25.355Z,2.10
2023-04-24T07:44:52.597Z,2.60
2023-04-24T07:47:19.722Z,2.40
2023-04-24T07:49:46.868Z,2.00
2023-04-24T07:52:14.121Z,2.10
2023-04-24T07:54:42.066Z,1.90
2023-04-24T07:57:09.471Z,2.10
2023-04-24T07:59:36.675Z,2.40
2023-04-24T08:02:03.845Z,2.00
2023-04-24T08:04:31.219Z,1.80
2023-04-24T08:06:59.014Z,2.20
2023-04-24T08:09:27.647Z,2.20
2023-04-24T08:11:55.081Z,2.00
2023-04-24T08:14:22.342Z,2.00
2023-04-24T08:16:49.410Z,2.20
2023-04-24T08:19:16.563Z,2.40
2023-04-24T08:21:43.704Z,2.50
2023-04-24T08:24:10.833Z,2.30
2023-04-24T08:26:38.015Z,2.30
2023-04-24T08:29:08.020Z,2.30
2023-04-24T08:31:35.311Z,2.30
2023-04-24T08:34:02.666Z,2.30
2023-04-24T08:36:43.551Z,2.40
2023-04-24T08:39:14.024Z,1.90
2023-04-24T08:41:46.640Z,2.30
2023-04-24T08:44:16.884Z,1.70
2023-04-24T08:46:46.762Z,1.80
2023-04-24T08:49:17.424Z,2.80
2023-04-24T08:51:48.884Z,2.30
2023-04-24T08:54:16.499Z,1.90
2023-04-24T08:56:45.126Z,2.10
2023-04-24T08:59:15.761Z,2.10
2023-04-24T09:01:44.935Z,1.50
2023-04-24T09:04:16.317Z,2.10
2023-04-24T09:06:43.864Z,1.90
2023-04-24T09:09:11.162Z,2.70
2023-04-24T09:11:38.382Z,2.00
2023-04-24T09:14:08.726Z,2.70
2023-04-24T09:16:37.257Z,2.00
2023-04-24T09:19:06.850Z,2.10
2023-04-24T09:21:34.987Z,1.90
2023-04-24T09:24:04.611Z,1.80
2023-04-24T09:26:35.070Z,1.60
2023-04-24T09:29:02.354Z,2.10
2023-04-24T09:31:30.826Z,1.90
2023-04-24T09:34:02.900Z,1.80
2023-04-24T09:36:35.117Z,2.20
2023-04-24T09:39:03.143Z,2.40
2023-04-24T09:41:33.890Z,2.30
2023-04-24T09:44:17.576Z,2.10
2023-04-24T09:46:50.079Z,1.40
2023-04-24T09:49:17.917Z,1.50
2023-04-24T09:51:47.315Z,1.80
2023-04-24T09:54:23.772Z,1.60
2023-04-24T09:56:52.185Z,1.70
2023-04-24T09:59:20.841Z,1.80
2023-04-24T10:01:49.865Z,2.30
2023-04-24T10:04:22.069Z,1.90
2023-04-24T10:06:52.844Z,2.00
2023-04-24T10:09:22.259Z,2.00
2023-04-24T10:11:55.236Z,2.40
2023-04-24T10:14:23.676Z,2.90
2023-04-24T10:16:51.384Z,2.10
2023-04-24T10:19:21.527Z,2.00
2023-04-24T10:21:48.836Z,2.30
2023-04-24T10:24:19.593Z,2.30
2023-04-24T10:26:47.000Z,2.50
2023-04-24T10:29:14.810Z,1.60
2023-04-24T10:31:42.818Z,1.90
2023-04-24T10:34:11.770Z,2.10
2023-04-24T10:36:43.907Z,2.50
2023-04-24T10:39:13.818Z,2.40
2023-04-24T10:41:42.245Z,1.80
2023-04-24T10:44:10.999Z,1.90
2023-04-24T10:46:42.418Z,2.00
2023-04-24T10:49:12.574Z,2.30
2023-04-24T10:51:48.437Z,2.50
2023-04-24T10:54:35.133Z,2.20
2023-04-24T10:57:23.786Z,2.50
2023-04-24T11:00:19.887Z,2.00
2023-04-24T11:02:50.617Z,2.50
2023-04-24T11:05:18.902Z,2.70
2023-04-24T11:08:14.482Z,2.30
2023-04-24T11:10:48.842Z,1.90
2023-04-24T11:13:22.890Z,2.40
2023-04-24T11:16:30.254Z,2.70
2023-04-24T11:19:09.010Z,2.10
2023-04-24T11:21:49.750Z,2.40
2023-04-24T11:24:27.641Z,1.90
2023-04-24T11:26:58.718Z,2.00
2023-04-24T11:29:45.724Z,1.80
2023-04-24T11:32:20.732Z,2.20
2023-04-24T11:34:53.038Z,2.40
2023-04-24T11:37:44.013Z,2.30
2023-04-24T11:40:17.688Z,2.10
2023-04-24T11:42:45.548Z,2.30
2023-04-24T11:45:21.029Z,2.60
2023-04-24T11:47:48.819Z,2.10
2023-04-24T11:50:17.073Z,2.60
2023-04-24T11:52:47.656Z,2.10
2023-04-24T11:55:20.916Z,2.60
2023-04-24T11:57:52.296Z,2.20
2023-04-24T12:00:23.846Z,2.60
2023-04-24T12:02:51.682Z,2.10
2023-04-24T12:05:35.857Z,2.00
2023-04-24T12:08:03.239Z,2.30
2023-04-24T12:10:31.410Z,2.40
2023-04-24T12:13:03.957Z,3.20
2023-04-24T12:15:32.313Z,2.30
2023-04-24T12:18:00.152Z,2.40
2023-04-24T12:20:32.349Z,2.60
2023-04-24T12:23:05.071Z,2.70
2023-04-24T12:25:33.178Z,2.60
2023-04-24T12:28:27.024Z,2.50
2023-04-24T12:30:54.795Z,2.40
2023-04-24T12:33:22.354Z,2.80
2023-04-24T12:35:52.631Z,2.50
2023-04-24T12:38:26.956Z,2.40
2023-04-24T12:41:07.693Z,2.00
2023-04-24T12:43:35.212Z,3.00
2023-04-24T12:46:02.424Z,2.70
2023-04-24T12:48:30.411Z,2.70
2023-04-24T12:51:04.154Z,2.90
2023-04-24T12:53:32.457Z,2.50
2023-04-24T12:55:59.831Z,2.50
2023-04-24T12:58:27.097Z,3.30
2023-04-24T13:00:54.407Z,2.60
2023-04-24T13:03:23.758Z,2.40
2023-04-24T13:05:51.546Z,2.40
2023-04-24T13:08:19.508Z,2.00
2023-04-24T13:10:46.722Z,5.50
2023-04-24T13:13:13.776Z,3.50
2023-04-24T13:15:41.401Z,2.70
2023-04-24T13:18:08.567Z,2.70
2023-04-24T13:20:37.449Z,1.80
2023-04-24T13:23:04.700Z,1.70
2023-04-24T13:25:36.434Z,1.90
2023-04-24T13:28:03.562Z,3.10
2023-04-24T13:30:30.632Z,2.30
2023-04-24T13:32:57.759Z,2.50
2023-04-24T13:35:24.888Z,3.60
2023-04-24T13:37:53.180Z,3.00
2023-04-24T13:40:20.356Z,2.50
2023-04-24T13:42:47.472Z,2.60
2023-04-24T13:45:24.870Z,2.40
2023-04-24T13:47:52.857Z,3.30
2023-04-24T13:50:20.501Z,3.20
2023-04-24T13:52:47.645Z,2.50
2023-04-24T13:55:15.044Z,2.70
2023-04-24T13:57:42.149Z,2.70
2023-04-24T14:00:15.558Z,2.60
2023-04-24T14:02:43.648Z,2.10
2023-04-24T14:05:12.308Z,2.90
2023-04-24T14:07:39.626Z,3.90
2023-04-24T14:10:08.660Z,2.70
2023-04-24T14:12:36.278Z,3.10
2023-04-24T14:15:03.847Z,2.80
2023-04-24T14:17:31.960Z,3.30
2023-04-24T14:20:01.661Z,2.60
2023-04-24T14:22:29.264Z,2.80
2023-04-24T14:24:56.356Z,2.90
2023-04-24T14:27:23.700Z,3.40
2023-04-24T14:29:51.008Z,3.40
2023-04-24T14:32:19.574Z,3.30
2023-04-24T14:34:46.725Z,3.40
2023-04-24T14:37:13.884Z,2.40
2023-04-24T14:39:42.364Z,2.20
2023-04-24T14:42:10.822Z,2.70
2023-04-24T14:44:38.290Z,2.80
2023-04-24T14:47:05.482Z,2.70
2023-04-24T14:49:34.143Z,3.40
2023-04-24T14:52:01.469Z,3.10
2023-04-24T14:54:29.614Z,3.00
2023-04-24T14:56:58.379Z,3.00
2023-04-24T14:59:25.599Z,2.50
2023-04-24T15:02:04.976Z,2.30
2023-04-24T15:04:43.202Z,2.60
2023-04-24T15:07:10.552Z,2.10
2023-04-24T15:09:37.657Z,3.00
2023-04-24T15:12:05.233Z,3.30
2023-04-24T15:14:32.462Z,3.60
2023-04-24T15:16:59.741Z,3.10
2023-04-24T15:19:26.998Z,2.50
2023-04-24T15:21:54.820Z,2.80
2023-04-24T15:24:21.901Z,3.50
2023-04-24T15:26:51.497Z,3.10
2023-04-24T15:29:19.044Z,2.40
2023-04-24T15:31:51.361Z,3.30
2023-04-24T15:34:18.491Z,2.80
2023-04-24T15:36:45.804Z,2.80
2023-04-24T15:39:15.833Z,3.20
2023-04-24T15:41:43.095Z,3.00
2023-04-24T15:44:10.575Z,3.10
2023-04-24T15:46:40.809Z,2.60
2023-04-24T15:49:08.009Z,2.50
2023-04-24T15:51:36.351Z,3.10
2023-04-24T15:54:03.963Z,2.70
2023-04-24T15:56:31.645Z,3.10
2023-04-24T15:58:59.237Z,3.10
2023-04-24T16:01:27.810Z,3.80
2023-04-24T16:03:57.252Z,2.70
2023-04-24T16:06:25.960Z,3.00
2023-04-24T16:08:53.025Z,2.20
2023-04-24T16:11:20.167Z,1.90
2023-04-24T16:13:47.332Z,2.50
2023-04-24T16:16:14.490Z,2.40
2023-04-24T16:18:41.933Z,2.30
2023-04-24T16:21:10.893Z,2.60
2023-04-24T16:23:38.332Z,3.00
2023-04-24T16:26:06.862Z,2.60
2023-04-24T16:28:33.929Z,4.10
2023-04-24T16:31:01.427Z,2.90
2023-04-24T16:33:29.518Z,4.60
2023-04-24T16:35:58.215Z,3.50
2023-04-24T16:38:27.522Z,3.60
2023-04-24T16:40:54.961Z,3.10
2023-04-24T16:43:22.107Z,2.80
2023-04-24T16:45:49.210Z,2.70
2023-04-24T16:48:17.929Z,3.90
2023-04-24T16:50:46.370Z,3.30
2023-04-24T16:53:13.984Z,3.40
2023-04-24T16:55:41.195Z,4.10
2023-04-24T16:58:08.586Z,3.90
2023-04-24T17:00:37.093Z,3.40
2023-04-24T17:03:04.553Z,3.40
2023-04-24T17:05:33.668Z,3.50
2023-04-24T17:08:01.092Z,3.20
2023-04-24T17:10:29.202Z,4.00
2023-04-24T17:12:57.644Z,3.20
2023-04-24T17:15:24.780Z,2.70
2023-04-24T17:17:51.992Z,4.50
2023-04-24T17:20:22.761Z,5.40
2023-04-24T17:22:50.382Z,4.10
2023-04-24T17:25:17.838Z,6.00
2023-04-24T17:27:45.390Z,5.10
2023-04-24T17:30:14.802Z,4.00
2023-04-24T17:32:41.901Z,3.80
2023-04-24T17:35:09.374Z,4.20
2023-04-24T17:37:37.933Z,3.20
2023-04-24T17:40:08.401Z,4.30
2023-04-24T17:42:41.573Z,4.40
2023-04-24T17:45:10.183Z,4.20
2023-04-24T17:47:37.328Z,4.80
2023-04-24T17:50:04.736Z,7.50
2023-04-24T17:52:33.630Z,7.20
2023-04-24T17:55:02.375Z,7.00
2023-04-24T17:57:29.651Z,6.80
2023-04-24T17:59:57.561Z,6.60
2023-04-24T18:02:27.965Z,6.10
2023-04-24T18:04:55.656Z,5.40
2023-04-24T18:07:23.028Z,4.90
2023-04-24T18:09:50.128Z,4.10
2023-04-24T18:12:17.311Z,4.70
2023-04-24T18:14:44.456Z,5.60
2023-04-24T18:17:11.828Z,6.00
2023-04-24T18:19:39.158Z,6.20
2023-04-24T18:22:06.376Z,4.10
2023-04-24T18:24:33.763Z,3.50
2023-04-24T18:27:01.854Z,4.10
2023-04-24T18:29:29.374Z,3.70
2023-04-24T18:31:56.806Z,6.00
2023-04-24T18:34:24.030Z,6.20
2023-04-24T18:36:51.345Z,6.40
2023-04-24T18:39:18.499Z,5.60
2023-04-24T18:41:45.906Z,4.60
2023-04-24T18:44:15.474Z,4.40
2023-04-24T18:46:42.758Z,5.10
2023-04-24T18:49:10.425Z,4.40
2023-04-24T18:51:50.195Z,5.00
2023-04-24T18:54:20.075Z,5.20
2023-04-24T18:56:47.200Z,6.60
2023-04-24T18:59:14.396Z,8.50
2023-04-24T19:01:41.841Z,8.10
2023-04-24T19:04:10.161Z,8.10
2023-04-24T19:06:38.290Z,10.60
2023-04-24T19:09:05.940Z,11.10
2023-04-24T19:11:33.645Z,11.80
2023-04-24T19:14:05.824Z,9.70
2023-04-24T19:16:32.995Z,9.90
2023-04-24T19:19:00.241Z,9.80
2023-04-24T19:21:28.606Z,10.20
2023-04-24T19:23:57.214Z,9.70
2023-04-24T19:26:25.998Z,8.60
2023-04-24T19:28:53.841Z,8.10
2023-04-24T19:31:22.308Z,8.40
2023-04-24T19:33:49.800Z,7.50
2023-04-24T19:36:20.872Z,7.00
2023-04-24T19:38:48.278Z,6.90
2023-04-24T19:41:16.252Z,6.90
2023-04-24T19:43:43.512Z,6.60
2023-04-24T19:46:13.396Z,6.60
2023-04-24T19:48:40.885Z,7.10
2023-04-24T19:51:08.087Z,6.10
2023-04-24T19:53:37.343Z,5.60
2023-04-24T19:56:04.591Z,5.40
2023-04-24T19:58:32.751Z,7.40
2023-04-24T20:01:01.659Z,6.40
2023-04-24T20:03:33.486Z,5.50
2023-04-24T20:06:01.361Z,4.90
2023-04-24T20:08:28.573Z,5.20
2023-04-24T20:10:58.212Z,5.50
2023-04-24T20:13:27.768Z,5.40
2023-04-24T20:15:55.735Z,5.10
2023-04-24T20:18:23.383Z,5.00
2023-04-24T20:20:54.286Z,5.10
2023-04-24T20:23:21.552Z,5.40
2023-04-24T20:25:50.249Z,4.60
2023-04-24T20:28:19.340Z,4.50
2023-04-24T20:30:46.612Z,4.40
2023-04-24T20:33:13.746Z,5.00
2023-04-24T20:35:40.925Z,5.90
2023-04-24T20:38:11.088Z,5.70
2023-04-24T20:40:46.910Z,5.90
2023-04-24T20:43:28.640Z,5.00
2023-04-24T20:45:58.312Z,5.00
2023-04-24T20:48:27.178Z,5.20
2023-04-24T20:50:56.145Z,5.10
2023-04-24T20:53:24.162Z,5.90
2023-04-24T20:55:51.309Z,5.20
2023-04-24T20:58:24.560Z,4.50
2023-04-24T21:00:51.957Z,5.00
2023-04-24T21:03:20.060Z,4.80
2023-04-24T21:05:51.316Z,5.20
2023-04-24T21:08:18.452Z,5.30
2023-04-24T21:10:46.685Z,5.40
2023-04-24T21:13:13.838Z,6.40
2023-04-24T21:15:40.989Z,6.10
2023-04-24T21:18:08.109Z,5.30
2023-04-24T21:20:36.505Z,5.60
2023-04-24T21:23:03.637Z,5.90
2023-04-24T21:25:30.823Z,5.20
2023-04-24T21:27:58.787Z,6.20
2023-04-24T21:30:25.947Z,7.30
2023-04-24T21:32:53.334Z,6.50
2023-04-24T21:35:20.897Z,5.90
2023-04-24T21:37:50.916Z,6.10
2023-04-24T21:40:18.019Z,6.70
2023-04-24T21:42:45.727Z,7.10
2023-04-24T21:45:12.847Z,6.30
2023-04-24T21:47:40.070Z,5.70
2023-04-24T21:50:07.962Z,6.20
2023-04-24T21:52:35.323Z,5.60
2023-04-24T21:55:04.667Z,5.80
2023-04-24T21:57:31.819Z,6.60
2023-04-24T21:59:59.013Z,5.90
2023-04-24T22:02:27.754Z,5.90
2023-04-24T22:04:56.667Z,5.10
2023-04-24T22:07:24.120Z,5.40
2023-04-24T22:09:52.702Z,5.00
2023-04-24T22:12:23.619Z,5.40
2023-04-24T22:14:51.718Z,5.90
2023-04-24T22:17:19.161Z,6.00
2023-04-24T22:19:46.462Z,5.80
2023-04-24T22:22:13.669Z,5.60
2023-04-24T22:24:41.012Z,5.90
2023-04-24T22:27:08.161Z,6.90
2023-04-24T22:29:35.454Z,5.60
2023-04-24T22:32:03.176Z,6.30
2023-04-24T22:34:30.446Z,6.20
2023-04-24T22:36:57.779Z,6.00
2023-04-24T22:39:24.888Z,5.60
2023-04-24T22:41:51.926Z,6.30
2023-04-24T22:44:19.320Z,6.00
2023-04-24T22:46:47.786Z,6.00
2023-04-24T22:49:15.063Z,6.30
2023-04-24T22:51:42.886Z,5.90
2023-04-24T22:54:09.987Z,6.20
2023-04-24T22:56:38.345Z,6.40
2023-04-24T22:59:06.631Z,6.20
2023-04-24T23:01:33.934Z,5.50
2023-04-24T23:04:01.100Z,5.60
2023-04-24T23:06:28.318Z,6.30
2023-04-24T23:08:55.494Z,5.60
2023-04-24T23:11:22.691Z,5.70
2023-04-24T23:13:50.071Z,5.00
2023-04-24T23:16:17.505Z,5.90
2023-04-24T23:18:44.631Z,6.50
2023-04-24T23:21:12.511Z,6.20
2023-04-24T23:23:39.722Z,5.60
2023-04-24T23:26:06.932Z,6.40
2023-04-24T23:28:34.060Z,6.30
2023-04-24T23:31:03.282Z,6.00
2023-04-24T23:33:31.433Z,6.20
2023-04-24T23:35:59.310Z,6.50
2023-04-24T23:38:30.132Z,7.10
2023-04-24T23:41:02.350Z,6.00
2023-04-24T23:43:29.444Z,6.00
2023-04-24T23:45:57.233Z,6.80
2023-04-24T23:48:24.291Z,7.30
2023-04-24T23:50:51.425Z,6.70
2023-04-24T23:53:18.564Z,6.20
2023-04-24T23:55:45.665Z,6.60
2023-04-24T23:58:13.835Z,8.10
